sensor_id;sensor_type;location;lat;lon;timestamp;temperature;humidity
71514;DHT22;59335;46.652;21.272;2022-12-07T00:00:50;22.27;41.17
71514;DHT22;59335;46.652;21.272;2022-12-07T00:03:55;22.26;41.13
71514;DHT22;59335;46.652;21.272;2022-12-07T00:07:02;22.23;41.14
71514;DHT22;59335;46.652;21.272;2022-12-07T00:10:07;22.24;40.95
71514;DHT22;59335;46.652;21.272;2022-12-07T00:13:09;22.26;40.87
71514;DHT22;59335;46.652;21.272;2022-12-07T00:16:14;22.23;40.81
71514;DHT22;59335;46.652;21.272;2022-12-07T00:19:17;22.21;40.92
71514;DHT22;59335;46.652;21.272;2022-12-07T00:22:21;22.19;40.90
71514;DHT22;59335;46.652;21.272;2022-12-07T00:25:25;22.21;40.82
71514;DHT22;59335;46.652;21.272;2022-12-07T00:28:28;22.21;40.79
71514;DHT22;59335;46.652;21.272;2022-12-07T00:31:33;22.20;40.74
71514;DHT22;59335;46.652;21.272;2022-12-07T00:34:37;22.21;40.62
71514;DHT22;59335;46.652;21.272;2022-12-07T00:37:40;22.20;40.58
71514;DHT22;59335;46.652;21.272;2022-12-07T00:40:43;22.20;40.62
71514;DHT22;59335;46.652;21.272;2022-12-07T00:43:46;22.17;40.65
71514;DHT22;59335;46.652;21.272;2022-12-07T00:46:50;22.19;40.64
71514;DHT22;59335;46.652;21.272;2022-12-07T00:49:52;22.21;40.51
71514;DHT22;59335;46.652;21.272;2022-12-07T00:52:55;22.23;40.61
71514;DHT22;59335;46.652;21.272;2022-12-07T00:55:57;22.20;40.55
71514;DHT22;59335;46.652;21.272;2022-12-07T00:59:02;22.19;40.43
71514;DHT22;59335;46.652;21.272;2022-12-07T01:02:06;22.19;40.47
71514;DHT22;59335;46.652;21.272;2022-12-07T01:05:08;22.20;40.40
71514;DHT22;59335;46.652;21.272;2022-12-07T01:08:11;22.19;40.31
71514;DHT22;59335;46.652;21.272;2022-12-07T01:11:18;22.19;40.36
71514;DHT22;59335;46.652;21.272;2022-12-07T01:14:21;22.16;40.24
71514;DHT22;59335;46.652;21.272;2022-12-07T01:17:23;22.17;40.33
71514;DHT22;59335;46.652;21.272;2022-12-07T01:20:27;22.20;40.18
71514;DHT22;59335;46.652;21.272;2022-12-07T01:23:30;22.19;40.13
71514;DHT22;59335;46.652;21.272;2022-12-07T01:26:33;22.19;39.96
71514;DHT22;59335;46.652;21.272;2022-12-07T01:29:36;22.14;40.03
71514;DHT22;59335;46.652;21.272;2022-12-07T01:32:38;22.16;39.99
71514;DHT22;59335;46.652;21.272;2022-12-07T01:35:41;22.14;40.04
71514;DHT22;59335;46.652;21.272;2022-12-07T01:38:45;22.16;39.99
71514;DHT22;59335;46.652;21.272;2022-12-07T01:41:48;22.16;39.92
71514;DHT22;59335;46.652;21.272;2022-12-07T01:48:35;22.16;39.86
71514;DHT22;59335;46.652;21.272;2022-12-07T01:51:40;22.17;39.79
71514;DHT22;59335;46.652;21.272;2022-12-07T01:54:46;22.17;39.78
71514;DHT22;59335;46.652;21.272;2022-12-07T01:57:52;22.14;39.79
71514;DHT22;59335;46.652;21.272;2022-12-07T02:00:55;22.14;39.70
71514;DHT22;59335;46.652;21.272;2022-12-07T02:03:58;22.14;39.75
71514;DHT22;59335;46.652;21.272;2022-12-07T02:07:02;22.12;39.65
71514;DHT22;59335;46.652;21.272;2022-12-07T02:10:16;22.13;39.62
71514;DHT22;59335;46.652;21.272;2022-12-07T02:13:26;22.14;39.57
71514;DHT22;59335;46.652;21.272;2022-12-07T02:26:49;22.10;39.52
71514;DHT22;59335;46.652;21.272;2022-12-07T02:33:14;22.09;39.47
71514;DHT22;59335;46.652;21.272;2022-12-07T02:36:25;22.10;39.55
71514;DHT22;59335;46.652;21.272;2022-12-07T02:39:50;22.10;39.38
71514;DHT22;59335;46.652;21.272;2022-12-07T02:43:14;22.10;39.29
71514;DHT22;59335;46.652;21.272;2022-12-07T02:46:33;22.09;39.42
71514;DHT22;59335;46.652;21.272;2022-12-07T02:49:38;22.10;39.29
71514;DHT22;59335;46.652;21.272;2022-12-07T02:52:43;22.09;39.34
71514;DHT22;59335;46.652;21.272;2022-12-07T02:55:46;22.05;39.18
71514;DHT22;59335;46.652;21.272;2022-12-07T03:05:59;22.05;39.24
71514;DHT22;59335;46.652;21.272;2022-12-07T03:09:30;22.07;39.19
71514;DHT22;59335;46.652;21.272;2022-12-07T03:12:59;22.07;39.23
71514;DHT22;59335;46.652;21.272;2022-12-07T03:19:15;22.05;39.04
71514;DHT22;59335;46.652;21.272;2022-12-07T03:22:20;22.02;39.07
71514;DHT22;59335;46.652;21.272;2022-12-07T03:25:25;22.05;38.98
71514;DHT22;59335;46.652;21.272;2022-12-07T03:28:35;22.06;39.04
71514;DHT22;59335;46.652;21.272;2022-12-07T03:31:43;22.09;38.99
71514;DHT22;59335;46.652;21.272;2022-12-07T03:34:53;22.06;38.89
71514;DHT22;59335;46.652;21.272;2022-12-07T03:38:08;22.03;38.83
71514;DHT22;59335;46.652;21.272;2022-12-07T03:41:34;22.07;38.75
71514;DHT22;59335;46.652;21.272;2022-12-07T03:44:46;22.00;38.89
71514;DHT22;59335;46.652;21.272;2022-12-07T03:48:05;22.02;38.71
71514;DHT22;59335;46.652;21.272;2022-12-07T03:51:31;22.06;38.69
71514;DHT22;59335;46.652;21.272;2022-12-07T03:54:39;22.03;38.68
71514;DHT22;59335;46.652;21.272;2022-12-07T03:57:44;21.98;38.69
71514;DHT22;59335;46.652;21.272;2022-12-07T04:00:50;22.00;38.69
71514;DHT22;59335;46.652;21.272;2022-12-07T04:03:53;21.99;38.56
71514;DHT22;59335;46.652;21.272;2022-12-07T04:06:57;22.02;38.44
71514;DHT22;59335;46.652;21.272;2022-12-07T04:10:01;22.02;38.33
71514;DHT22;59335;46.652;21.272;2022-12-07T04:13:04;22.02;38.48
71514;DHT22;59335;46.652;21.272;2022-12-07T04:16:06;22.02;38.40
71514;DHT22;59335;46.652;21.272;2022-12-07T04:19:12;22.03;38.32
71514;DHT22;59335;46.652;21.272;2022-12-07T04:22:15;22.02;38.30
71514;DHT22;59335;46.652;21.272;2022-12-07T04:25:18;22.00;38.32
71514;DHT22;59335;46.652;21.272;2022-12-07T04:28:20;22.00;38.26
71514;DHT22;59335;46.652;21.272;2022-12-07T04:31:23;22.00;38.17
71514;DHT22;59335;46.652;21.272;2022-12-07T04:34:26;22.02;38.30
71514;DHT22;59335;46.652;21.272;2022-12-07T04:37:29;21.99;38.31
71514;DHT22;59335;46.652;21.272;2022-12-07T04:40:33;22.03;38.09
71514;DHT22;59335;46.652;21.272;2022-12-07T04:43:36;21.99;38.16
71514;DHT22;59335;46.652;21.272;2022-12-07T04:46:40;22.00;38.10
71514;DHT22;59335;46.652;21.272;2022-12-07T04:49:43;21.96;38.14
71514;DHT22;59335;46.652;21.272;2022-12-07T04:52:45;22.00;38.08
71514;DHT22;59335;46.652;21.272;2022-12-07T04:55:49;22.00;38.23
71514;DHT22;59335;46.652;21.272;2022-12-07T04:58:53;22.03;38.23
71514;DHT22;59335;46.652;21.272;2022-12-07T05:01:56;22.03;38.99
71514;DHT22;59335;46.652;21.272;2022-12-07T05:04:59;22.06;38.70
71514;DHT22;59335;46.652;21.272;2022-12-07T05:08:01;22.05;38.51
71514;DHT22;59335;46.652;21.272;2022-12-07T05:11:06;22.09;38.58
71514;DHT22;59335;46.652;21.272;2022-12-07T05:14:15;22.10;38.43
71514;DHT22;59335;46.652;21.272;2022-12-07T05:17:18;22.06;38.39
71514;DHT22;59335;46.652;21.272;2022-12-07T05:20:21;22.10;38.45
71514;DHT22;59335;46.652;21.272;2022-12-07T05:23:24;22.09;38.22
71514;DHT22;59335;46.652;21.272;2022-12-07T05:26:28;22.06;38.26
71514;DHT22;59335;46.652;21.272;2022-12-07T05:29:33;22.03;37.99
71514;DHT22;59335;46.652;21.272;2022-12-07T05:32:35;22.03;38.02
71514;DHT22;59335;46.652;21.272;2022-12-07T05:35:38;22.02;37.95
71514;DHT22;59335;46.652;21.272;2022-12-07T05:38:41;22.02;38.11
71514;DHT22;59335;46.652;21.272;2022-12-07T05:41:44;22.03;38.41
71514;DHT22;59335;46.652;21.272;2022-12-07T05:45:06;22.05;38.23
71514;DHT22;59335;46.652;21.272;2022-12-07T05:48:09;22.06;38.27
71514;DHT22;59335;46.652;21.272;2022-12-07T05:51:12;21.99;38.38
71514;DHT22;59335;46.652;21.272;2022-12-07T05:54:14;22.00;38.33
71514;DHT22;59335;46.652;21.272;2022-12-07T05:57:17;22.02;38.30
71514;DHT22;59335;46.652;21.272;2022-12-07T06:00:20;22.02;38.44
71514;DHT22;59335;46.652;21.272;2022-12-07T06:03:23;22.00;38.63
71514;DHT22;59335;46.652;21.272;2022-12-07T06:06:26;21.99;38.17
71514;DHT22;59335;46.652;21.272;2022-12-07T06:09:29;22.03;37.87
71514;DHT22;59335;46.652;21.272;2022-12-07T06:12:32;22.05;37.68
71514;DHT22;59335;46.652;21.272;2022-12-07T06:15:38;22.00;37.93
71514;DHT22;59335;46.652;21.272;2022-12-07T06:18:41;21.96;38.28
71514;DHT22;59335;46.652;21.272;2022-12-07T06:21:44;22.00;38.03
71514;DHT22;59335;46.652;21.272;2022-12-07T06:24:47;22.03;38.16
71514;DHT22;59335;46.652;21.272;2022-12-07T06:27:50;22.07;38.39
71514;DHT22;59335;46.652;21.272;2022-12-07T06:30:59;22.05;38.37
71514;DHT22;59335;46.652;21.272;2022-12-07T06:34:05;22.12;38.47
71514;DHT22;59335;46.652;21.272;2022-12-07T06:37:08;22.03;38.33
71514;DHT22;59335;46.652;21.272;2022-12-07T06:40:11;22.02;38.28
71514;DHT22;59335;46.652;21.272;2022-12-07T06:43:14;22.03;38.69
71514;DHT22;59335;46.652;21.272;2022-12-07T06:46:20;22.13;39.05
71514;DHT22;59335;46.652;21.272;2022-12-07T06:49:29;22.19;39.35
71514;DHT22;59335;46.652;21.272;2022-12-07T06:52:34;22.23;39.12
71514;DHT22;59335;46.652;21.272;2022-12-07T06:55:41;22.26;39.26
71514;DHT22;59335;46.652;21.272;2022-12-07T06:58:46;22.30;39.38
71514;DHT22;59335;46.652;21.272;2022-12-07T07:01:50;22.37;39.69
71514;DHT22;59335;46.652;21.272;2022-12-07T07:04:54;22.37;39.48
71514;DHT22;59335;46.652;21.272;2022-12-07T07:07:58;22.40;39.59
71514;DHT22;59335;46.652;21.272;2022-12-07T07:11:22;22.44;39.51
71514;DHT22;59335;46.652;21.272;2022-12-07T07:14:24;22.47;39.56
71514;DHT22;59335;46.652;21.272;2022-12-07T07:17:27;22.48;39.57
71514;DHT22;59335;46.652;21.272;2022-12-07T07:20:31;22.51;39.58
71514;DHT22;59335;46.652;21.272;2022-12-07T07:23:35;22.53;39.57
71514;DHT22;59335;46.652;21.272;2022-12-07T07:26:41;22.55;39.61
71514;DHT22;59335;46.652;21.272;2022-12-07T07:29:46;22.58;39.59
71514;DHT22;59335;46.652;21.272;2022-12-07T07:32:48;22.57;39.64
71514;DHT22;59335;46.652;21.272;2022-12-07T07:35:52;22.58;39.59
71514;DHT22;59335;46.652;21.272;2022-12-07T07:38:55;22.60;39.69
71514;DHT22;59335;46.652;21.272;2022-12-07T07:41:59;22.61;39.65
71514;DHT22;59335;46.652;21.272;2022-12-07T07:45:03;22.64;39.72
71514;DHT22;59335;46.652;21.272;2022-12-07T07:48:08;22.64;39.70
71514;DHT22;59335;46.652;21.272;2022-12-07T07:51:11;22.64;39.76
71514;DHT22;59335;46.652;21.272;2022-12-07T07:54:14;22.61;40.10
71514;DHT22;59335;46.652;21.272;2022-12-07T07:57:18;22.71;40.33
71514;DHT22;59335;46.652;21.272;2022-12-07T08:00:21;22.71;40.47
71514;DHT22;59335;46.652;21.272;2022-12-07T08:03:24;22.75;40.61
71514;DHT22;59335;46.652;21.272;2022-12-07T08:06:28;22.76;40.69
71514;DHT22;59335;46.652;21.272;2022-12-07T08:09:34;22.81;40.55
71514;DHT22;59335;46.652;21.272;2022-12-07T08:12:39;22.79;40.52
71514;DHT22;59335;46.652;21.272;2022-12-07T08:16:08;22.78;40.48
71514;DHT22;59335;46.652;21.272;2022-12-07T08:19:14;22.82;40.51
71514;DHT22;59335;46.652;21.272;2022-12-07T08:22:19;22.84;40.50
71514;DHT22;59335;46.652;21.272;2022-12-07T08:25:24;22.85;40.52
71514;DHT22;59335;46.652;21.272;2022-12-07T08:28:29;22.87;40.50
71514;DHT22;59335;46.652;21.272;2022-12-07T08:31:32;22.84;40.44
71514;DHT22;59335;46.652;21.272;2022-12-07T08:34:36;22.85;40.50
71514;DHT22;59335;46.652;21.272;2022-12-07T08:37:39;22.84;40.60
71514;DHT22;59335;46.652;21.272;2022-12-07T08:40:42;22.84;40.55
71514;DHT22;59335;46.652;21.272;2022-12-07T08:43:47;22.81;40.66
71514;DHT22;59335;46.652;21.272;2022-12-07T08:46:55;22.87;40.65
71514;DHT22;59335;46.652;21.272;2022-12-07T08:50:02;22.84;40.66
71514;DHT22;59335;46.652;21.272;2022-12-07T08:53:06;22.88;41.06
71514;DHT22;59335;46.652;21.272;2022-12-07T08:56:09;22.94;41.39
71514;DHT22;59335;46.652;21.272;2022-12-07T08:59:17;22.91;41.22
71514;DHT22;59335;46.652;21.272;2022-12-07T09:02:23;22.90;41.58
71514;DHT22;59335;46.652;21.272;2022-12-07T09:05:29;22.92;41.50
71514;DHT22;59335;46.652;21.272;2022-12-07T09:08:39;22.92;41.39
71514;DHT22;59335;46.652;21.272;2022-12-07T09:11:44;22.92;41.36
71514;DHT22;59335;46.652;21.272;2022-12-07T09:14:49;22.92;41.39
71514;DHT22;59335;46.652;21.272;2022-12-07T09:17:52;22.94;41.40
71514;DHT22;59335;46.652;21.272;2022-12-07T09:20:57;22.91;41.39
71514;DHT22;59335;46.652;21.272;2022-12-07T09:24:00;22.94;41.42
71514;DHT22;59335;46.652;21.272;2022-12-07T09:27:06;22.92;41.50
71514;DHT22;59335;46.652;21.272;2022-12-07T09:30:10;22.92;41.44
71514;DHT22;59335;46.652;21.272;2022-12-07T09:33:13;22.94;41.44
71514;DHT22;59335;46.652;21.272;2022-12-07T09:36:31;22.91;41.47
71514;DHT22;59335;46.652;21.272;2022-12-07T09:39:34;22.94;41.44
71514;DHT22;59335;46.652;21.272;2022-12-07T09:42:40;22.91;41.46
71514;DHT22;59335;46.652;21.272;2022-12-07T09:45:51;22.94;41.42
71514;DHT22;59335;46.652;21.272;2022-12-07T09:48:56;22.95;41.87
71514;DHT22;59335;46.652;21.272;2022-12-07T09:55:30;22.91;41.85
71514;DHT22;59335;46.652;21.272;2022-12-07T09:58:33;22.92;42.10
71514;DHT22;59335;46.652;21.272;2022-12-07T10:01:38;22.96;42.54
71514;DHT22;59335;46.652;21.272;2022-12-07T10:04:43;22.96;42.39
71514;DHT22;59335;46.652;21.272;2022-12-07T10:07:46;22.95;42.37
71514;DHT22;59335;46.652;21.272;2022-12-07T10:10:55;22.95;42.41
71514;DHT22;59335;46.652;21.272;2022-12-07T10:14:12;22.95;42.32
71514;DHT22;59335;46.652;21.272;2022-12-07T10:17:40;22.95;42.43
71514;DHT22;59335;46.652;21.272;2022-12-07T10:20:48;22.94;42.46
71514;DHT22;59335;46.652;21.272;2022-12-07T10:24:04;22.94;42.45
71514;DHT22;59335;46.652;21.272;2022-12-07T10:27:20;22.95;42.39
71514;DHT22;59335;46.652;21.272;2022-12-07T10:30:24;22.95;42.45
71514;DHT22;59335;46.652;21.272;2022-12-07T10:33:57;22.92;42.44
71514;DHT22;59335;46.652;21.272;2022-12-07T10:37:20;22.92;42.43
71514;DHT22;59335;46.652;21.272;2022-12-07T10:40:35;22.94;42.41
71514;DHT22;59335;46.652;21.272;2022-12-07T10:43:47;22.92;42.48
71514;DHT22;59335;46.652;21.272;2022-12-07T10:47:09;22.85;42.52
71514;DHT22;59335;46.652;21.272;2022-12-07T10:50:35;22.90;42.65
71514;DHT22;59335;46.652;21.272;2022-12-07T10:54:03;22.92;42.58
71514;DHT22;59335;46.652;21.272;2022-12-07T11:04:59;22.98;42.85
71514;DHT22;59335;46.652;21.272;2022-12-07T11:11:59;23.02;42.76
71514;DHT22;59335;46.652;21.272;2022-12-07T11:15:17;23.02;42.94
71514;DHT22;59335;46.652;21.272;2022-12-07T11:22:18;23.03;42.83
71514;DHT22;59335;46.652;21.272;2022-12-07T11:25:35;23.03;42.90
71514;DHT22;59335;46.652;21.272;2022-12-07T11:29:06;23.05;42.90
71514;DHT22;59335;46.652;21.272;2022-12-07T11:38:53;23.08;43.15
71514;DHT22;59335;46.652;21.272;2022-12-07T11:42:05;23.08;43.29
71514;DHT22;59335;46.652;21.272;2022-12-07T11:45:22;23.11;43.43
71514;DHT22;59335;46.652;21.272;2022-12-07T11:48:35;23.11;43.42
71514;DHT22;59335;46.652;21.272;2022-12-07T11:51:42;23.12;43.64
71514;DHT22;59335;46.652;21.272;2022-12-07T11:54:49;23.08;43.70
71514;DHT22;59335;46.652;21.272;2022-12-07T11:58:13;23.12;43.87
71514;DHT22;59335;46.652;21.272;2022-12-07T12:04:51;23.13;44.26
71514;DHT22;59335;46.652;21.272;2022-12-07T12:08:20;23.16;44.37
71514;DHT22;59335;46.652;21.272;2022-12-07T12:12:13;23.11;44.35
71514;DHT22;59335;46.652;21.272;2022-12-07T12:16:29;23.12;44.51
71514;DHT22;59335;46.652;21.272;2022-12-07T12:23:17;23.09;44.39
71514;DHT22;59335;46.652;21.272;2022-12-07T12:26:23;23.06;44.44
71514;DHT22;59335;46.652;21.272;2022-12-07T12:29:35;23.06;44.41
71514;DHT22;59335;46.652;21.272;2022-12-07T12:32:40;23.05;44.47
71514;DHT22;59335;46.652;21.272;2022-12-07T12:35:44;23.03;44.50
71514;DHT22;59335;46.652;21.272;2022-12-07T12:42:18;23.01;44.50
71514;DHT22;59335;46.652;21.272;2022-12-07T12:45:32;23.01;44.86
71514;DHT22;59335;46.652;21.272;2022-12-07T12:48:36;23.01;44.86
71514;DHT22;59335;46.652;21.272;2022-12-07T12:51:44;23.02;44.70
71514;DHT22;59335;46.652;21.272;2022-12-07T13:11:25;23.06;45.40
71514;DHT22;59335;46.652;21.272;2022-12-07T13:14:55;23.06;45.55
71514;DHT22;59335;46.652;21.272;2022-12-07T13:18:01;23.08;45.23
71514;DHT22;59335;46.652;21.272;2022-12-07T13:24:12;23.09;45.33
71514;DHT22;59335;46.652;21.272;2022-12-07T13:27:15;23.09;45.25
71514;DHT22;59335;46.652;21.272;2022-12-07T13:30:21;23.06;45.16
71514;DHT22;59335;46.652;21.272;2022-12-07T13:33:29;23.05;45.55
71514;DHT22;59335;46.652;21.272;2022-12-07T13:36:37;23.03;45.28
71514;DHT22;59335;46.652;21.272;2022-12-07T13:39:50;23.05;45.26
71514;DHT22;59335;46.652;21.272;2022-12-07T13:43:01;23.01;45.56
71514;DHT22;59335;46.652;21.272;2022-12-07T13:46:09;23.02;45.31
71514;DHT22;59335;46.652;21.272;2022-12-07T13:49:25;23.01;45.13
71514;DHT22;59335;46.652;21.272;2022-12-07T13:52:31;23.02;45.19
71514;DHT22;59335;46.652;21.272;2022-12-07T13:55:34;23.01;45.12
71514;DHT22;59335;46.652;21.272;2022-12-07T13:58:38;22.98;45.44
71514;DHT22;59335;46.652;21.272;2022-12-07T14:01:45;22.98;45.30
71514;DHT22;59335;46.652;21.272;2022-12-07T14:04:50;23.01;45.16
71514;DHT22;59335;46.652;21.272;2022-12-07T14:11:04;22.99;45.06
71514;DHT22;59335;46.652;21.272;2022-12-07T14:14:16;22.99;44.94
71514;DHT22;59335;46.652;21.272;2022-12-07T14:17:23;22.99;44.85
71514;DHT22;59335;46.652;21.272;2022-12-07T14:20:37;22.98;44.80
71514;DHT22;59335;46.652;21.272;2022-12-07T14:23:41;22.98;44.82
71514;DHT22;59335;46.652;21.272;2022-12-07T14:26:49;22.98;44.81
71514;DHT22;59335;46.652;21.272;2022-12-07T14:29:52;22.95;44.72
71514;DHT22;59335;46.652;21.272;2022-12-07T14:33:02;22.96;44.71
71514;DHT22;59335;46.652;21.272;2022-12-07T14:36:08;22.96;44.73
71514;DHT22;59335;46.652;21.272;2022-12-07T14:39:11;22.94;44.67
71514;DHT22;59335;46.652;21.272;2022-12-07T14:42:15;22.95;44.69
71514;DHT22;59335;46.652;21.272;2022-12-07T14:45:22;22.95;44.71
71514;DHT22;59335;46.652;21.272;2022-12-07T14:48:25;22.94;44.69
71514;DHT22;59335;46.652;21.272;2022-12-07T14:51:48;22.98;44.59
71514;DHT22;59335;46.652;21.272;2022-12-07T14:55:19;22.94;45.00
71514;DHT22;59335;46.652;21.272;2022-12-07T14:58:23;22.94;44.98
71514;DHT22;59335;46.652;21.272;2022-12-07T15:01:26;22.95;44.77
71514;DHT22;59335;46.652;21.272;2022-12-07T15:04:28;22.95;44.68
71514;DHT22;59335;46.652;21.272;2022-12-07T15:07:31;22.94;44.52
71514;DHT22;59335;46.652;21.272;2022-12-07T15:10:34;22.94;44.51
71514;DHT22;59335;46.652;21.272;2022-12-07T15:13:40;22.94;44.41
71514;DHT22;59335;46.652;21.272;2022-12-07T15:17:02;22.94;44.40
71514;DHT22;59335;46.652;21.272;2022-12-07T15:20:13;22.95;44.34
71514;DHT22;59335;46.652;21.272;2022-12-07T15:23:17;22.95;44.42
71514;DHT22;59335;46.652;21.272;2022-12-07T15:26:19;22.95;44.42
71514;DHT22;59335;46.652;21.272;2022-12-07T15:29:23;22.90;44.44
71514;DHT22;59335;46.652;21.272;2022-12-07T15:32:25;22.91;44.43
71514;DHT22;59335;46.652;21.272;2022-12-07T15:35:28;22.88;44.37
71514;DHT22;59335;46.652;21.272;2022-12-07T15:38:32;22.87;44.27
71514;DHT22;59335;46.652;21.272;2022-12-07T15:41:56;22.87;44.29
71514;DHT22;59335;46.652;21.272;2022-12-07T15:45:00;22.90;44.30
71514;DHT22;59335;46.652;21.272;2022-12-07T15:48:07;22.88;44.23
71514;DHT22;59335;46.652;21.272;2022-12-07T15:51:30;22.90;44.16
71514;DHT22;59335;46.652;21.272;2022-12-07T15:54:33;22.88;44.18
71514;DHT22;59335;46.652;21.272;2022-12-07T15:57:38;22.88;44.13
71514;DHT22;59335;46.652;21.272;2022-12-07T16:00:40;22.90;44.15
71514;DHT22;59335;46.652;21.272;2022-12-07T16:03:44;22.87;44.13
71514;DHT22;59335;46.652;21.272;2022-12-07T16:06:47;22.90;44.13
71514;DHT22;59335;46.652;21.272;2022-12-07T16:09:49;22.88;44.10
71514;DHT22;59335;46.652;21.272;2022-12-07T16:12:53;22.88;44.09
71514;DHT22;59335;46.652;21.272;2022-12-07T16:15:57;22.88;44.09
71514;DHT22;59335;46.652;21.272;2022-12-07T16:18:59;22.85;44.15
71514;DHT22;59335;46.652;21.272;2022-12-07T16:22:04;22.82;45.32
71514;DHT22;59335;46.652;21.272;2022-12-07T16:25:07;22.81;45.32
71514;DHT22;59335;46.652;21.272;2022-12-07T16:28:09;22.75;44.54
71514;DHT22;59335;46.652;21.272;2022-12-07T16:31:15;22.71;44.68
71514;DHT22;59335;46.652;21.272;2022-12-07T16:34:18;22.58;44.28
71514;DHT22;59335;46.652;21.272;2022-12-07T16:37:21;22.67;44.45
71514;DHT22;59335;46.652;21.272;2022-12-07T16:40:25;22.69;45.33
71514;DHT22;59335;46.652;21.272;2022-12-07T16:43:28;22.71;45.28
71514;DHT22;59335;46.652;21.272;2022-12-07T16:46:35;22.75;44.87
71514;DHT22;59335;46.652;21.272;2022-12-07T16:49:38;22.76;44.82
71514;DHT22;59335;46.652;21.272;2022-12-07T16:52:44;22.76;44.90
71514;DHT22;59335;46.652;21.272;2022-12-07T16:55:46;22.76;45.04
71514;DHT22;59335;46.652;21.272;2022-12-07T16:58:50;22.76;44.90
71514;DHT22;59335;46.652;21.272;2022-12-07T17:01:53;22.78;44.86
71514;DHT22;59335;46.652;21.272;2022-12-07T17:04:57;22.76;44.66
71514;DHT22;59335;46.652;21.272;2022-12-07T17:08:01;22.78;44.67
71514;DHT22;59335;46.652;21.272;2022-12-07T17:11:14;22.81;44.61
71514;DHT22;59335;46.652;21.272;2022-12-07T17:14:19;22.78;44.58
71514;DHT22;59335;46.652;21.272;2022-12-07T17:17:40;22.76;44.52
71514;DHT22;59335;46.652;21.272;2022-12-07T17:20:43;22.79;44.55
71514;DHT22;59335;46.652;21.272;2022-12-07T17:23:47;22.79;44.51
71514;DHT22;59335;46.652;21.272;2022-12-07T17:26:50;22.79;44.48
71514;DHT22;59335;46.652;21.272;2022-12-07T17:29:53;22.79;44.44
71514;DHT22;59335;46.652;21.272;2022-12-07T17:32:56;22.82;44.43
71514;DHT22;59335;46.652;21.272;2022-12-07T17:35:59;22.81;44.44
71514;DHT22;59335;46.652;21.272;2022-12-07T17:39:10;22.78;44.36
71514;DHT22;59335;46.652;21.272;2022-12-07T17:42:13;22.78;44.37
71514;DHT22;59335;46.652;21.272;2022-12-07T17:45:36;22.76;44.33
71514;DHT22;59335;46.652;21.272;2022-12-07T17:48:40;22.76;44.28
71514;DHT22;59335;46.652;21.272;2022-12-07T17:51:42;22.79;44.28
71514;DHT22;59335;46.652;21.272;2022-12-07T17:55:04;22.76;44.23
71514;DHT22;59335;46.652;21.272;2022-12-07T17:58:08;22.72;44.20
71514;DHT22;59335;46.652;21.272;2022-12-07T18:01:11;22.74;44.14
71514;DHT22;59335;46.652;21.272;2022-12-07T18:04:15;22.72;44.05
71514;DHT22;59335;46.652;21.272;2022-12-07T18:07:18;22.72;44.01
71514;DHT22;59335;46.652;21.272;2022-12-07T18:10:22;22.72;43.93
71514;DHT22;59335;46.652;21.272;2022-12-07T18:13:25;22.72;43.88
71514;DHT22;59335;46.652;21.272;2022-12-07T18:16:38;22.72;43.80
71514;DHT22;59335;46.652;21.272;2022-12-07T18:19:42;22.72;43.76
71514;DHT22;59335;46.652;21.272;2022-12-07T18:22:52;22.71;43.69
71514;DHT22;59335;46.652;21.272;2022-12-07T18:25:55;22.72;43.66
71514;DHT22;59335;46.652;21.272;2022-12-07T18:29:00;22.72;43.62
71514;DHT22;59335;46.652;21.272;2022-12-07T18:32:03;22.71;43.57
71514;DHT22;59335;46.652;21.272;2022-12-07T18:35:09;22.71;43.45
71514;DHT22;59335;46.652;21.272;2022-12-07T18:38:16;22.72;43.45
71514;DHT22;59335;46.652;21.272;2022-12-07T18:41:21;22.69;43.38
71514;DHT22;59335;46.652;21.272;2022-12-07T18:44:24;22.72;43.35
71514;DHT22;59335;46.652;21.272;2022-12-07T18:47:27;22.72;43.30
71514;DHT22;59335;46.652;21.272;2022-12-07T18:50:31;22.69;43.26
71514;DHT22;59335;46.652;21.272;2022-12-07T18:53:35;22.69;43.22
71514;DHT22;59335;46.652;21.272;2022-12-07T18:56:40;22.69;43.14
71514;DHT22;59335;46.652;21.272;2022-12-07T18:59:44;22.71;43.10
71514;DHT22;59335;46.652;21.272;2022-12-07T19:02:49;22.71;43.04
71514;DHT22;59335;46.652;21.272;2022-12-07T19:05:53;22.68;42.99
71514;DHT22;59335;46.652;21.272;2022-12-07T19:09:00;22.67;42.96
71514;DHT22;59335;46.652;21.272;2022-12-07T19:12:04;22.68;42.90
71514;DHT22;59335;46.652;21.272;2022-12-07T19:15:10;22.68;42.87
71514;DHT22;59335;46.652;21.272;2022-12-07T19:18:16;22.68;42.89
71514;DHT22;59335;46.652;21.272;2022-12-07T19:21:19;22.68;42.80
71514;DHT22;59335;46.652;21.272;2022-12-07T19:24:23;22.67;42.76
71514;DHT22;59335;46.652;21.272;2022-12-07T19:27:27;22.67;42.73
71514;DHT22;59335;46.652;21.272;2022-12-07T19:30:32;22.65;42.62
71514;DHT22;59335;46.652;21.272;2022-12-07T19:33:37;22.67;42.61
71514;DHT22;59335;46.652;21.272;2022-12-07T19:36:41;22.64;42.55
71514;DHT22;59335;46.652;21.272;2022-12-07T19:39:46;22.67;42.53
71514;DHT22;59335;46.652;21.272;2022-12-07T19:42:53;22.67;42.52
71514;DHT22;59335;46.652;21.272;2022-12-07T19:46:05;22.65;42.46
71514;DHT22;59335;46.652;21.272;2022-12-07T19:49:09;22.67;42.42
71514;DHT22;59335;46.652;21.272;2022-12-07T19:52:16;22.64;42.37
71514;DHT22;59335;46.652;21.272;2022-12-07T19:55:20;22.64;42.32
71514;DHT22;59335;46.652;21.272;2022-12-07T19:58:23;22.63;42.25
71514;DHT22;59335;46.652;21.272;2022-12-07T20:01:28;22.63;42.18
71514;DHT22;59335;46.652;21.272;2022-12-07T20:04:32;22.64;42.16
71514;DHT22;59335;46.652;21.272;2022-12-07T20:07:37;22.61;42.15
71514;DHT22;59335;46.652;21.272;2022-12-07T20:10:41;22.64;42.14
71514;DHT22;59335;46.652;21.272;2022-12-07T20:13:45;22.61;42.10
71514;DHT22;59335;46.652;21.272;2022-12-07T20:16:50;22.63;42.14
71514;DHT22;59335;46.652;21.272;2022-12-07T20:19:54;22.63;42.03
71514;DHT22;59335;46.652;21.272;2022-12-07T20:22:58;22.63;42.00
71514;DHT22;59335;46.652;21.272;2022-12-07T20:26:04;22.63;42.01
71514;DHT22;59335;46.652;21.272;2022-12-07T20:29:13;22.63;41.96
71514;DHT22;59335;46.652;21.272;2022-12-07T20:32:19;22.64;41.93
71514;DHT22;59335;46.652;21.272;2022-12-07T20:35:25;22.63;41.81
71514;DHT22;59335;46.652;21.272;2022-12-07T20:38:31;22.63;41.89
71514;DHT22;59335;46.652;21.272;2022-12-07T20:41:35;22.63;41.84
71514;DHT22;59335;46.652;21.272;2022-12-07T20:44:57;22.63;41.80
71514;DHT22;59335;46.652;21.272;2022-12-07T20:48:05;22.61;41.82